Time;durP1;ratioP1;P1;durP2;ratioP2;P2;SDS_P1;SDS_P2;PMS_P1;PMS_P2;Temp;Humidity;BMP_temperature;BMP_pressure;BME280_temperature;BME280_humidity;BME280_pressure;Samples;Min_cycle;Max_cycle;Signal;HPM_P1;HPM_P2
2021/01/20 00:01:19;;;;;;;12.68;9.00;;;8.20;96.00;;;;;;4985892;28;20077;-43
2021/01/20 00:03:44;;;;;;;12.00;8.45;;;8.20;95.90;;;;;;4985567;28;20100;-43
2021/01/20 00:06:10;;;;;;;11.82;8.40;;;8.20;95.90;;;;;;4983352;28;20023;-43
2021/01/20 00:08:35;;;;;;;15.38;8.77;;;8.20;95.90;;;;;;4984931;28;20037;-42
2021/01/20 00:11:01;;;;;;;11.82;9.35;;;8.20;95.90;;;;;;4985617;28;20041;-44
2021/01/20 00:13:26;;;;;;;13.85;8.40;;;8.10;95.80;;;;;;4985888;28;20030;-43
2021/01/20 00:15:52;;;;;;;13.35;9.05;;;8.10;95.80;;;;;;4985876;28;20196;-43
2021/01/20 00:18:17;;;;;;;9.80;7.88;;;8.20;95.80;;;;;;4984988;28;20680;-44
2021/01/20 00:20:43;;;;;;;11.70;8.52;;;8.20;95.80;;;;;;4985522;28;20117;-43
2021/01/20 00:23:08;;;;;;;11.88;7.38;;;8.20;95.70;;;;;;4985335;28;20057;-43
2021/01/20 00:25:34;;;;;;;11.10;7.68;;;8.20;95.70;;;;;;4985030;28;20022;-43
2021/01/20 00:27:59;;;;;;;11.38;8.05;;;8.10;95.60;;;;;;4985800;28;20038;-43
2021/01/20 00:30:25;;;;;;;11.18;8.05;;;8.10;95.70;;;;;;4985046;28;20092;-42
2021/01/20 00:32:50;;;;;;;13.45;8.60;;;8.00;95.70;;;;;;4985386;28;20023;-43
2021/01/20 00:35:21;;;;;;;9.85;7.15;;;8.00;95.80;;;;;;4985116;28;20023;-43
2021/01/20 00:37:47;;;;;;;10.00;7.72;;;7.90;95.90;;;;;;4985815;28;20034;-42
2021/01/20 00:40:13;;;;;;;12.55;8.20;;;7.90;96.00;;;;;;4984608;28;20026;-43
2021/01/20 00:42:38;;;;;;;9.55;7.28;;;7.80;96.00;;;;;;4985474;28;20034;-43
2021/01/20 00:45:04;;;;;;;12.65;7.63;;;7.80;96.10;;;;;;4985451;28;20038;-43
2021/01/20 00:47:30;;;;;;;9.70;7.50;;;7.80;96.10;;;;;;4984471;28;20477;-42
2021/01/20 00:49:55;;;;;;;10.35;7.07;;;7.80;96.10;;;;;;4985942;28;20030;-42
2021/01/20 00:52:21;;;;;;;11.57;6.65;;;7.80;96.20;;;;;;4984964;28;20139;-42
2021/01/20 00:54:46;;;;;;;9.88;7.28;;;7.80;96.20;;;;;;4984923;28;20454;-43
2021/01/20 00:57:12;;;;;;;8.23;6.80;;;7.80;96.10;;;;;;4985395;28;20058;-42
2021/01/20 00:59:40;;;;;;;10.52;6.70;;;7.80;96.10;;;;;;4984964;28;20602;-42
2021/01/20 01:02:06;;;;;;;8.88;6.70;;;7.80;96.10;;;;;;4984924;28;20350;-42
2021/01/20 01:04:32;;;;;;;9.43;7.03;;;7.80;96.10;;;;;;4985056;28;20476;-42
2021/01/20 01:07:00;;;;;;;7.47;6.20;;;7.90;96.10;;;;;;4984860;28;20101;-42
2021/01/20 01:09:26;;;;;;;11.77;6.97;;;7.80;96.00;;;;;;4984932;28;20018;-42
2021/01/20 01:11:54;;;;;;;9.02;6.25;;;7.80;96.00;;;;;;4985311;28;20033;-42
2021/01/20 01:14:20;;;;;;;10.82;6.40;;;7.80;96.00;;;;;;4984154;28;20141;-42
2021/01/20 01:16:45;;;;;;;10.18;6.47;;;7.80;95.90;;;;;;4985008;28;20117;-42
2021/01/20 01:19:11;;;;;;;8.02;6.38;;;7.80;95.90;;;;;;4985029;28;20034;-41
2021/01/20 01:21:36;;;;;;;10.52;6.30;;;7.80;95.90;;;;;;4984657;28;20049;-42
2021/01/20 01:24:02;;;;;;;7.28;6.07;;;7.80;95.90;;;;;;4984858;28;20061;-43
2021/01/20 01:26:28;;;;;;;8.20;5.30;;;7.90;95.90;;;;;;4985022;28;20758;-43
2021/01/20 01:28:53;;;;;;;8.30;5.85;;;7.90;95.90;;;;;;4984583;28;20109;-42
2021/01/20 01:31:19;;;;;;;8.13;6.25;;;7.90;95.80;;;;;;4985004;28;20025;-42
2021/01/20 01:33:44;;;;;;;11.10;6.60;;;7.90;95.70;;;;;;4984757;28;20312;-42
2021/01/20 01:36:10;;;;;;;8.77;6.20;;;7.90;95.70;;;;;;4984856;28;20525;-42
2021/01/20 01:38:36;;;;;;;9.70;6.10;;;7.90;95.70;;;;;;4985100;28;20069;-42
2021/01/20 01:41:04;;;;;;;6.88;5.53;;;7.90;95.70;;;;;;4984457;28;20477;-42
2021/01/20 01:43:30;;;;;;;9.45;5.93;;;7.90;95.60;;;;;;4984140;28;20085;-41
2021/01/20 01:45:55;;;;;;;9.35;5.93;;;7.90;95.60;;;;;;4985056;28;20058;-42
2021/01/20 01:48:21;;;;;;;9.40;6.00;;;7.90;95.50;;;;;;4984423;28;20370;-42
2021/01/20 01:50:47;;;;;;;10.05;6.50;;;7.90;95.50;;;;;;4984878;28;20082;-42
2021/01/20 01:53:13;;;;;;;8.88;5.90;;;7.90;95.50;;;;;;4984293;28;20066;-42
2021/01/20 01:55:42;;;;;;;10.90;7.05;;;7.90;95.40;;;;;;4987160;28;20131;-42
2021/01/20 01:58:08;;;;;;;8.80;5.88;;;7.90;95.40;;;;;;4987585;28;20077;-41
2021/01/20 02:00:34;;;;;;;8.10;6.22;;;7.90;95.30;;;;;;4987934;28;20401;-42
2021/01/20 02:03:01;;;;;;;9.38;5.88;;;7.90;95.40;;;;;;4987854;28;20378;-42
2021/01/20 02:05:27;;;;;;;10.15;6.13;;;7.90;95.30;;;;;;4988028;28;20023;-41
2021/01/20 02:07:53;;;;;;;8.98;5.85;;;7.90;95.30;;;;;;4988545;28;20045;-42
2021/01/20 02:10:19;;;;;;;9.27;5.63;;;7.90;95.30;;;;;;4987004;28;20050;-42
2021/01/20 02:13:03;;;;;;;11.85;6.00;;;7.90;95.30;;;;;;4988956;28;20073;-42
2021/01/20 02:15:36;;;;;;;8.98;6.00;;;7.90;95.30;;;;;;4987985;28;20029;-41
2021/01/20 02:18:14;;;;;;;11.13;5.80;;;7.90;95.30;;;;;;4987557;28;20026;-42
2021/01/20 02:20:49;;;;;;;8.48;6.00;;;7.80;95.30;;;;;;4988543;28;20042;-42
2021/01/20 02:23:17;;;;;;;9.68;6.18;;;7.80;95.30;;;;;;4988308;28;20116;-42
2021/01/20 02:25:59;;;;;;;7.03;5.60;;;7.80;95.30;;;;;;4987856;28;20029;-42
2021/01/20 02:28:34;;;;;;;8.18;5.40;;;7.80;95.40;;;;;;4988459;28;20023;-41
2021/01/20 02:31:02;;;;;;;6.55;5.13;;;7.80;95.40;;;;;;4988614;28;20338;-46
2021/01/20 02:33:31;;;;;;;7.57;5.57;;;7.80;95.40;;;;;;4987958;28;20072;-42
2021/01/20 02:36:00;;;;;;;9.27;5.32;;;7.80;95.50;;;;;;4987498;28;20031;-41
2021/01/20 02:38:27;;;;;;;8.77;5.22;;;7.80;95.50;;;;;;4987162;28;20034;-42
2021/01/20 02:40:53;;;;;;;9.85;5.78;;;7.80;95.50;;;;;;4987329;28;20162;-41
2021/01/20 02:43:23;;;;;;;6.75;5.38;;;7.80;95.50;;;;;;4987443;28;20494;-42
2021/01/20 02:45:49;;;;;;;11.32;6.15;;;7.90;95.50;;;;;;4986961;28;20045;-42
2021/01/20 02:48:15;;;;;;;7.70;5.30;;;7.80;95.40;;;;;;4987338;28;20071;-43
2021/01/20 02:50:41;;;;;;;8.70;5.80;;;7.80;95.50;;;;;;4987112;28;20462;-42
2021/01/20 02:53:23;;;;;;;6.28;5.10;;;7.80;95.50;;;;;;4987141;28;20053;-43
2021/01/20 02:55:55;;;;;;;7.30;5.85;;;7.80;95.60;;;;;;4987089;28;20030;-43
2021/01/20 02:58:27;;;;;;;7.10;5.30;;;7.80;95.50;;;;;;4986940;28;20031;-42
2021/01/20 03:00:53;;;;;;;9.23;5.65;;;7.80;95.50;;;;;;4986650;28;20355;-42
2021/01/20 03:03:21;;;;;;;7.43;5.47;;;7.80;95.50;;;;;;4987061;28;20438;-42
2021/01/20 03:05:49;;;;;;;8.52;5.75;;;7.80;95.50;;;;;;4986765;28;20042;-41
2021/01/20 03:08:15;;;;;;;8.02;5.50;;;7.90;95.60;;;;;;4986478;28;20376;-42
2021/01/20 03:10:41;;;;;;;8.23;5.28;;;7.90;95.50;;;;;;4987129;28;20062;-41
2021/01/20 03:13:09;;;;;;;9.68;6.03;;;7.90;95.50;;;;;;4986632;28;20134;-41
2021/01/20 03:15:38;;;;;;;9.02;5.85;;;7.90;95.50;;;;;;4986249;28;20018;-42
2021/01/20 03:18:04;;;;;;;8.38;5.72;;;8.00;95.50;;;;;;4987265;28;20045;-42
2021/01/20 03:20:30;;;;;;;7.10;4.78;;;8.00;95.50;;;;;;4986541;28;20030;-42
2021/01/20 03:22:56;;;;;;;7.63;5.50;;;8.00;95.60;;;;;;4982835;28;20404;-42
2021/01/20 03:25:22;;;;;;;7.72;5.38;;;8.00;95.50;;;;;;4986754;28;20034;-42
2021/01/20 03:27:48;;;;;;;6.65;5.03;;;8.00;95.60;;;;;;4986126;28;20026;-42
2021/01/20 03:30:14;;;;;;;8.80;6.00;;;8.00;95.60;;;;;;4986641;28;20030;-41
2021/01/20 03:32:40;;;;;;;6.45;5.35;;;7.90;95.60;;;;;;4986060;28;20080;-42
2021/01/20 03:35:06;;;;;;;8.27;5.68;;;8.00;95.70;;;;;;4986864;28;20026;-42
2021/01/20 03:37:32;;;;;;;7.97;5.38;;;7.90;95.70;;;;;;4986059;28;20075;-42
2021/01/20 03:39:57;;;;;;;9.52;6.25;;;8.00;96.00;;;;;;4986319;28;20445;-43
2021/01/20 03:42:26;;;;;;;9.25;5.18;;;7.90;95.70;;;;;;4986267;28;20417;-42
2021/01/20 03:44:51;;;;;;;6.53;4.70;;;8.00;95.70;;;;;;4986266;28;20038;-43
2021/01/20 03:47:17;;;;;;;9.07;5.13;;;8.00;95.80;;;;;;4986034;28;20033;-43
2021/01/20 03:49:43;;;;;;;6.05;4.35;;;8.00;96.00;;;;;;4986044;28;20041;-42
2021/01/20 03:52:08;;;;;;;8.95;4.60;;;8.00;95.80;;;;;;4986147;28;20019;-43
2021/01/20 03:54:37;;;;;;;6.97;4.70;;;8.00;95.70;;;;;;4986058;28;20382;-42
2021/01/20 03:57:03;;;;;;;6.00;4.45;;;8.00;95.70;;;;;;4985328;28;20031;-41
2021/01/20 03:59:30;;;;;;;5.93;4.43;;;8.00;95.70;;;;;;4985796;28;20026;-42
2021/01/20 04:01:59;;;;;;;5.88;4.18;;;8.00;95.70;;;;;;4986404;28;20026;-43
2021/01/20 04:04:25;;;;;;;7.38;4.30;;;8.00;95.60;;;;;;4985366;28;20034;-43
2021/01/20 04:06:51;;;;;;;5.82;4.22;;;8.10;95.70;;;;;;4985992;28;20033;-41
2021/01/20 04:09:16;;;;;;;6.13;4.68;;;8.10;95.60;;;;;;4985631;28;20229;-43
2021/01/20 04:11:42;;;;;;;6.25;4.43;;;8.10;95.50;;;;;;4985426;28;20466;-43
2021/01/20 04:14:08;;;;;;;8.52;5.15;;;8.10;95.60;;;;;;4985729;28;20018;-42
2021/01/20 04:16:33;;;;;;;7.43;4.45;;;8.20;95.50;;;;;;4985552;28;20026;-43
2021/01/20 04:18:59;;;;;;;6.63;4.28;;;8.20;95.50;;;;;;4985192;28;20038;-43
2021/01/20 04:21:24;;;;;;;5.05;4.07;;;8.20;95.50;;;;;;4985420;28;20049;-43
2021/01/20 04:23:50;;;;;;;6.93;4.00;;;8.20;95.40;;;;;;4985077;28;20058;-42
2021/01/20 04:26:16;;;;;;;4.65;4.00;;;8.30;95.40;;;;;;4985648;28;20022;-43
2021/01/20 04:28:41;;;;;;;5.10;3.80;;;8.30;95.60;;;;;;4985375;28;20112;-42
2021/01/20 04:31:07;;;;;;;8.02;4.35;;;8.30;95.30;;;;;;4985754;28;20131;-42
2021/01/20 04:33:33;;;;;;;5.18;4.03;;;8.30;95.30;;;;;;4985501;28;20033;-44
2021/01/20 04:35:58;;;;;;;5.72;4.20;;;8.30;95.30;;;;;;4985323;28;20102;-44
2021/01/20 04:38:24;;;;;;;7.35;4.78;;;8.30;95.20;;;;;;4984748;28;20054;-43
2021/01/20 04:40:55;;;;;;;7.22;4.10;;;8.40;95.20;;;;;;4985503;28;20042;-46
2021/01/20 04:43:24;;;;;;;6.45;3.97;;;8.40;95.10;;;;;;4985550;28;20033;-43
2021/01/20 04:45:54;;;;;;;8.15;4.28;;;8.40;95.10;;;;;;4984975;28;20034;-42
2021/01/20 04:48:20;;;;;;;4.90;3.58;;;8.40;95.00;;;;;;4985410;28;20589;-42
2021/01/20 04:50:48;;;;;;;5.93;4.30;;;8.40;95.00;;;;;;4985070;28;20125;-42
2021/01/20 04:53:15;;;;;;;5.47;4.05;;;8.40;95.00;;;;;;4985006;28;20038;-42
2021/01/20 04:55:44;;;;;;;7.03;4.00;;;8.40;95.00;;;;;;4985223;28;20018;-42
2021/01/20 04:58:11;;;;;;;6.13;4.28;;;8.40;95.00;;;;;;4986073;28;20100;-43
2021/01/20 05:00:38;;;;;;;7.13;4.28;;;8.40;95.00;;;;;;4984696;28;20114;-44
2021/01/20 05:03:08;;;;;;;4.93;3.78;;;8.40;95.00;;;;;;4985937;28;20035;-43
2021/01/20 05:05:35;;;;;;;4.88;3.78;;;8.30;95.10;;;;;;4984879;28;20374;-43
2021/01/20 05:08:01;;;;;;;5.65;4.00;;;8.30;95.10;;;;;;4984226;28;20157;-41
2021/01/20 05:10:27;;;;;;;5.55;4.22;;;8.40;95.10;;;;;;4985074;28;20065;-41
2021/01/20 05:12:53;;;;;;;7.35;4.55;;;8.40;95.10;;;;;;4984968;28;20028;-41
2021/01/20 05:15:35;;;;;;;4.93;3.67;;;8.40;95.10;;;;;;4985003;28;20022;-42
2021/01/20 05:18:04;;;;;;;4.55;3.70;;;8.40;95.10;;;;;;4985273;28;20026;-42
2021/01/20 05:20:31;;;;;;;3.63;3.22;;;8.50;95.10;;;;;;4984292;28;20022;-42
2021/01/20 05:23:08;;;;;;;3.95;3.55;;;8.40;95.00;;;;;;4984701;28;20702;-42
2021/01/20 05:25:37;;;;;;;6.32;3.88;;;8.50;95.00;;;;;;4985008;28;20430;-41
2021/01/20 05:28:25;;;;;;;5.28;3.88;;;8.50;95.00;;;;;;4985161;28;20034;-41
2021/01/20 05:30:53;;;;;;;5.38;3.80;;;8.50;95.00;;;;;;4987205;28;20034;-44
2021/01/20 05:33:23;;;;;;;5.28;3.80;;;8.50;94.90;;;;;;4988599;28;20026;-43
2021/01/20 05:36:13;;;;;;;4.88;3.63;;;8.50;94.90;;;;;;4988542;28;20026;-43
2021/01/20 05:38:43;;;;;;;4.53;3.35;;;8.50;94.90;;;;;;4988893;28;20500;-43
2021/01/20 05:41:19;;;;;;;3.78;3.30;;;8.50;94.90;;;;;;4988238;28;20149;-43
2021/01/20 05:43:46;;;;;;;4.10;3.22;;;8.50;94.90;;;;;;4988258;28;20046;-42
2021/01/20 05:46:12;;;;;;;4.78;3.40;;;8.50;94.90;;;;;;4988283;28;20049;-43
2021/01/20 05:48:47;;;;;;;4.40;3.35;;;8.60;94.90;;;;;;4988123;28;20492;-43
2021/01/20 05:51:13;;;;;;;5.13;3.53;;;8.60;94.80;;;;;;4988186;28;20467;-42
2021/01/20 05:53:49;;;;;;;4.60;3.70;;;8.60;94.80;;;;;;4988351;28;20042;-43
2021/01/20 05:56:15;;;;;;;7.55;4.10;;;8.60;94.70;;;;;;4987797;28;20018;-43
2021/01/20 05:58:41;;;;;;;5.35;3.67;;;8.60;94.70;;;;;;4988144;28;20030;-43
2021/01/20 06:01:11;;;;;;;6.18;4.05;;;8.60;94.60;;;;;;4988482;28;20033;-41
2021/01/20 06:03:37;;;;;;;5.30;3.85;;;8.60;94.50;;;;;;4987896;28;20037;-43
2021/01/20 06:06:05;;;;;;;4.53;3.50;;;8.60;94.50;;;;;;4988119;28;20104;-41
2021/01/20 06:08:35;;;;;;;6.50;3.38;;;8.60;94.40;;;;;;4988406;28;20050;-42
2021/01/20 06:11:02;;;;;;;5.55;3.83;;;8.60;94.40;;;;;;4987365;28;20081;-47
2021/01/20 06:13:28;;;;;;;5.20;3.83;;;8.70;94.30;;;;;;4987593;28;20038;-42
2021/01/20 06:15:57;;;;;;;5.72;3.78;;;8.60;94.30;;;;;;4988353;28;20125;-42
2021/01/20 06:18:25;;;;;;;4.25;3.40;;;8.70;94.30;;;;;;4986972;28;20354;-42
2021/01/20 06:20:54;;;;;;;4.97;3.60;;;8.70;94.20;;;;;;4988198;28;20157;-43
2021/01/20 06:23:25;;;;;;;5.45;3.60;;;8.70;94.20;;;;;;4987289;28;20145;-42
2021/01/20 06:26:01;;;;;;;4.43;3.15;;;8.70;94.20;;;;;;4969118;28;20023;-42
2021/01/20 06:28:27;;;;;;;5.70;3.55;;;8.70;94.10;;;;;;4984246;28;20022;-42
2021/01/20 06:31:04;;;;;;;5.43;3.30;;;8.70;94.00;;;;;;4987473;28;20124;-42
2021/01/20 06:33:30;;;;;;;4.57;3.45;;;8.70;94.00;;;;;;4988057;28;20114;-42
2021/01/20 06:35:55;;;;;;;4.95;3.42;;;8.70;94.00;;;;;;4988059;28;20121;-43
2021/01/20 06:38:27;;;;;;;4.25;3.10;;;8.70;94.00;;;;;;4987866;28;20109;-43
2021/01/20 06:40:55;;;;;;;4.70;3.55;;;8.70;93.90;;;;;;4987586;28;20074;-43
2021/01/20 06:43:33;;;;;;;4.45;3.17;;;8.70;93.80;;;;;;4986016;28;20042;-43
2021/01/20 06:46:25;;;;;;;4.50;3.45;;;8.80;93.80;;;;;;4976651;28;20537;-43
2021/01/20 06:48:53;;;;;;;3.95;2.95;;;8.80;93.80;;;;;;4981981;28;20026;-43
2021/01/20 06:51:29;;;;;;;5.47;3.70;;;8.80;93.80;;;;;;4987309;28;20085;-42
2021/01/20 06:54:05;;;;;;;3.90;3.17;;;8.80;93.70;;;;;;4984609;28;20018;-42
2021/01/20 06:56:34;;;;;;;3.50;2.65;;;8.80;93.60;;;;;;4987021;28;20100;-42
2021/01/20 06:59:21;;;;;;;4.35;3.10;;;8.80;93.60;;;;;;4986776;28;20180;-43
2021/01/20 07:02:02;;;;;;;4.93;3.10;;;8.80;93.40;;;;;;4986923;28;20350;-42
2021/01/20 07:04:39;;;;;;;3.15;2.83;;;8.80;93.40;;;;;;4986052;28;20072;-43
2021/01/20 07:07:09;;;;;;;3.53;2.88;;;8.80;93.40;;;;;;4986418;28;20100;-43
2021/01/20 07:09:50;;;;;;;4.93;2.88;;;8.80;93.30;;;;;;4985957;28;20271;-43
2021/01/20 07:12:23;;;;;;;4.25;2.83;;;8.80;93.20;;;;;;4986169;28;20070;-42
2021/01/20 07:14:50;;;;;;;3.83;3.08;;;8.90;93.30;;;;;;4986925;28;20193;-43
2021/01/20 07:17:17;;;;;;;3.97;2.97;;;8.80;93.20;;;;;;4980264;28;20171;-41
2021/01/20 07:19:45;;;;;;;3.20;2.60;;;8.90;93.30;;;;;;4980405;28;20058;-42
2021/01/20 07:22:10;;;;;;;2.90;2.20;;;8.90;93.30;;;;;;4987682;28;20053;-42
2021/01/20 07:24:36;;;;;;;3.65;2.65;;;8.90;93.30;;;;;;4986621;28;20486;-42
2021/01/20 07:27:09;;;;;;;3.53;2.55;;;8.90;93.30;;;;;;4987206;28;20034;-43
2021/01/20 07:29:35;;;;;;;3.90;2.55;;;8.90;93.30;;;;;;4987044;28;20031;-42
2021/01/20 07:32:02;;;;;;;2.92;2.30;;;8.90;93.30;;;;;;4986650;28;20117;-43
2021/01/20 07:34:44;;;;;;;4.00;2.60;;;8.90;93.30;;;;;;4986569;28;20026;-43
2021/01/20 07:37:11;;;;;;;2.33;1.95;;;8.90;93.30;;;;;;4987488;28;20145;-43
2021/01/20 07:39:43;;;;;;;3.25;2.58;;;8.90;93.30;;;;;;4986695;28;20133;-43
2021/01/20 07:42:09;;;;;;;2.25;2.05;;;8.90;93.30;;;;;;4986659;28;20030;-42
2021/01/20 07:44:36;;;;;;;3.08;2.00;;;9.00;93.40;;;;;;4986280;28;20030;-44
2021/01/20 07:47:06;;;;;;;2.88;2.40;;;9.00;93.40;;;;;;4986823;28;20034;-44
2021/01/20 07:49:34;;;;;;;2.20;2.00;;;9.00;93.40;;;;;;4986094;28;20507;-43
2021/01/20 07:52:07;;;;;;;4.72;2.55;;;8.90;93.40;;;;;;4986070;28;20458;-43
2021/01/20 07:54:45;;;;;;;3.13;2.60;;;9.00;93.50;;;;;;4986233;28;20040;-41
2021/01/20 07:57:16;;;;;;;4.55;2.42;;;9.00;93.50;;;;;;4983943;28;20094;-44
2021/01/20 07:59:42;;;;;;;2.95;2.28;;;9.00;93.50;;;;;;4986359;28;20118;-42
2021/01/20 08:02:12;;;;;;;3.80;2.40;;;9.00;93.50;;;;;;4986211;28;20113;-42
2021/01/20 08:04:41;;;;;;;3.65;2.67;;;9.00;93.50;;;;;;4986427;28;20312;-42
2021/01/20 08:07:09;;;;;;;3.28;2.40;;;9.00;93.50;;;;;;4986233;28;20876;-43
2021/01/20 08:09:38;;;;;;;3.33;2.60;;;9.00;93.60;;;;;;4985863;28;20023;-42
2021/01/20 08:12:08;;;;;;;3.35;2.70;;;9.00;93.60;;;;;;4986363;28;20080;-44
2021/01/20 08:14:36;;;;;;;4.10;3.25;;;9.00;93.60;;;;;;4986578;28;20117;-42
2021/01/20 08:17:04;;;;;;;5.13;3.58;;;9.00;93.70;;;;;;4985478;28;20052;-42
2021/01/20 08:19:34;;;;;;;3.88;2.85;;;9.00;93.70;;;;;;4985850;28;20100;-42
2021/01/20 08:22:04;;;;;;;3.88;2.90;;;9.00;93.70;;;;;;4983625;28;20029;-43
2021/01/20 08:24:30;;;;;;;3.67;2.20;;;9.00;93.70;;;;;;4983327;28;20058;-42
2021/01/20 08:26:57;;;;;;;4.10;2.60;;;9.00;93.80;;;;;;4985750;28;20030;-42
2021/01/20 08:29:23;;;;;;;3.03;2.65;;;9.10;93.80;;;;;;4985943;28;20379;-42
2021/01/20 08:32:08;;;;;;;2.90;2.40;;;9.00;93.80;;;;;;4975634;28;20050;-42
2021/01/20 08:34:45;;;;;;;2.88;2.50;;;9.00;93.90;;;;;;4985600;28;20026;-42
2021/01/20 08:37:18;;;;;;;2.75;2.40;;;9.10;93.90;;;;;;4985203;28;20038;-45
2021/01/20 08:39:55;;;;;;;3.00;2.50;;;9.10;93.90;;;;;;4977678;28;20128;-45
2021/01/20 08:42:36;;;;;;;3.22;2.80;;;9.10;93.90;;;;;;4977767;28;20030;-43
2021/01/20 08:45:20;;;;;;;4.35;2.80;;;9.00;94.00;;;;;;4985380;28;20444;-42
2021/01/20 08:48:06;;;;;;;4.38;2.80;;;9.00;94.10;;;;;;4985661;28;20057;-43
2021/01/20 08:50:42;;;;;;;5.32;3.00;;;9.00;94.10;;;;;;4986107;28;20034;-41
2021/01/20 08:53:13;;;;;;;3.38;2.63;;;9.00;94.20;;;;;;4985850;28;20034;-43
2021/01/20 08:55:52;;;;;;;3.60;2.47;;;9.00;94.20;;;;;;4986280;28;20109;-42
2021/01/20 08:58:22;;;;;;;3.00;2.50;;;9.00;94.30;;;;;;4985777;28;20030;-44
2021/01/20 09:00:58;;;;;;;3.70;2.40;;;9.10;94.30;;;;;;4986430;28;20034;-42
2021/01/20 09:03:31;;;;;;;2.50;2.30;;;9.10;94.30;;;;;;4985545;28;20588;-44
2021/01/20 09:05:59;;;;;;;2.80;2.25;;;9.10;94.40;;;;;;4988771;28;20133;-46
2021/01/20 09:08:26;;;;;;;2.72;2.20;;;9.20;94.40;;;;;;4989351;28;20053;-44
2021/01/20 09:10:53;;;;;;;2.53;2.03;;;9.20;94.40;;;;;;4988936;28;20689;-44
2021/01/20 09:13:19;;;;;;;2.53;2.08;;;9.20;94.40;;;;;;4986552;28;20077;-43
2021/01/20 09:15:50;;;;;;;3.60;2.17;;;9.20;94.40;;;;;;4988484;28;20038;-44
2021/01/20 09:18:17;;;;;;;3.72;2.20;;;9.20;94.40;;;;;;4988014;28;20023;-42
2021/01/20 09:20:43;;;;;;;2.55;2.22;;;9.30;94.40;;;;;;4982520;28;20027;-43
2021/01/20 09:23:09;;;;;;;2.72;2.03;;;9.30;94.40;;;;;;4989127;28;20038;-44
2021/01/20 09:25:34;;;;;;;2.53;2.10;;;9.30;94.40;;;;;;4988834;28;20022;-45
2021/01/20 09:28:00;;;;;;;2.92;2.13;;;9.40;94.40;;;;;;4988112;28;20022;-41
2021/01/20 09:30:29;;;;;;;2.83;2.08;;;9.40;94.40;;;;;;4988665;28;20018;-41
2021/01/20 09:32:54;;;;;;;3.25;2.40;;;9.50;94.30;;;;;;4988262;28;20041;-43
2021/01/20 09:35:21;;;;;;;3.30;2.60;;;9.50;94.20;;;;;;4988313;28;20105;-42
2021/01/20 09:37:47;;;;;;;3.28;2.40;;;9.60;94.10;;;;;;4988824;28;20168;-43
2021/01/20 09:40:15;;;;;;;2.40;2.08;;;9.60;94.00;;;;;;4988022;28;20054;-44
2021/01/20 09:42:43;;;;;;;3.25;2.67;;;9.70;93.70;;;;;;4988593;28;20101;-44
2021/01/20 09:45:10;;;;;;;3.78;2.40;;;9.70;93.50;;;;;;4988563;28;20048;-42
2021/01/20 09:47:37;;;;;;;2.42;1.90;;;9.80;93.60;;;;;;4988058;28;20031;-43
2021/01/20 09:50:05;;;;;;;3.72;1.83;;;9.80;93.40;;;;;;4988415;28;20112;-42
2021/01/20 09:52:30;;;;;;;2.65;1.92;;;9.90;93.40;;;;;;4986505;28;20545;-41
2021/01/20 09:54:56;;;;;;;4.45;1.88;;;10.00;93.30;;;;;;4986184;28;20029;-42
2021/01/20 09:57:22;;;;;;;2.22;1.80;;;10.10;93.30;;;;;;4986981;28;20540;-42
2021/01/20 09:59:51;;;;;;;2.10;1.85;;;10.10;93.10;;;;;;4987252;28;20027;-43
2021/01/20 10:02:17;;;;;;;3.85;1.90;;;10.20;92.90;;;;;;4979261;28;20042;-44
2021/01/20 10:04:45;;;;;;;3.00;1.90;;;10.30;92.80;;;;;;4976386;28;20129;-42
2021/01/20 10:07:11;;;;;;;2.20;1.65;;;10.30;92.60;;;;;;4988736;28;20045;-43
2021/01/20 10:09:40;;;;;;;1.98;1.67;;;10.40;92.40;;;;;;4987858;28;20113;-43
2021/01/20 10:12:07;;;;;;;3.20;1.90;;;10.50;92.40;;;;;;4988576;28;20088;-42
2021/01/20 10:14:32;;;;;;;3.05;1.70;;;10.50;92.20;;;;;;4988012;28;20663;-41
2021/01/20 10:16:58;;;;;;;2.03;1.70;;;10.50;92.20;;;;;;4987018;28;20042;-41
2021/01/20 10:19:24;;;;;;;1.90;1.50;;;10.50;92.10;;;;;;4987807;28;20038;-42
2021/01/20 10:21:49;;;;;;;2.20;1.67;;;10.50;91.90;;;;;;4988065;28;20025;-44
2021/01/20 10:24:15;;;;;;;1.90;1.50;;;10.60;91.80;;;;;;4987493;28;20845;-42
2021/01/20 10:26:41;;;;;;;3.10;1.60;;;10.50;91.70;;;;;;4987397;28;20385;-43
2021/01/20 10:29:07;;;;;;;1.90;1.73;;;10.50;91.70;;;;;;4988017;28;20031;-42
2021/01/20 10:31:42;;;;;;;2.30;1.60;;;10.50;91.50;;;;;;4987436;28;20021;-43
2021/01/20 10:34:10;;;;;;;2.92;2.15;;;10.50;91.40;;;;;;4968444;28;20108;-43
2021/01/20 10:36:36;;;;;;;2.13;1.70;;;10.50;91.40;;;;;;4982430;28;20022;-43
2021/01/20 10:39:04;;;;;;;1.98;1.77;;;10.50;91.40;;;;;;4987836;28;20030;-43
2021/01/20 10:41:29;;;;;;;2.97;2.03;;;10.50;91.20;;;;;;4987705;28;20485;-43
2021/01/20 10:43:55;;;;;;;2.05;1.65;;;10.40;91.00;;;;;;4987347;28;20038;-43
2021/01/20 10:46:25;;;;;;;2.55;2.05;;;10.40;91.10;;;;;;4987288;28;20028;-42
2021/01/20 10:48:52;;;;;;;2.10;1.88;;;10.40;90.80;;;;;;4988169;28;20145;-43
2021/01/20 10:51:18;;;;;;;2.83;1.60;;;10.40;90.80;;;;;;4986204;28;20386;-43
2021/01/20 10:53:43;;;;;;;2.28;1.40;;;10.40;90.60;;;;;;4987282;28;20022;-42
2021/01/20 10:56:09;;;;;;;3.60;1.83;;;10.40;90.70;;;;;;4988094;28;20037;-44
2021/01/20 10:58:35;;;;;;;4.22;1.60;;;10.50;90.60;;;;;;4983726;28;20046;-43
2021/01/20 11:01:02;;;;;;;1.67;1.50;;;10.50;90.60;;;;;;4978887;28;20100;-42
2021/01/20 11:03:28;;;;;;;1.90;1.58;;;10.50;90.40;;;;;;4982877;28;20122;-42
2021/01/20 11:05:56;;;;;;;4.05;1.88;;;10.60;90.40;;;;;;4986784;28;20125;-42
2021/01/20 11:08:22;;;;;;;3.15;1.45;;;10.60;90.30;;;;;;4984311;28;20018;-42
2021/01/20 11:10:48;;;;;;;1.60;1.40;;;10.60;90.10;;;;;;4986277;28;20046;-42
2021/01/20 11:13:17;;;;;;;2.40;1.80;;;10.70;90.00;;;;;;4986092;28;20064;-41
2021/01/20 11:15:47;;;;;;;2.50;1.58;;;10.70;89.40;;;;;;4986481;28;20422;-44
2021/01/20 11:18:17;;;;;;;2.95;1.85;;;10.70;88.90;;;;;;4985814;28;20035;-42
2021/01/20 11:20:44;;;;;;;1.50;1.40;;;10.70;88.50;;;;;;4985798;28;20269;-43
2021/01/20 11:23:13;;;;;;;3.47;1.87;;;10.70;88.30;;;;;;4986424;28;20042;-43
2021/01/20 11:25:50;;;;;;;2.47;1.40;;;10.80;88.60;;;;;;4985196;28;20068;-42
2021/01/20 11:28:16;;;;;;;3.08;1.42;;;10.80;88.40;;;;;;4985432;28;20026;-42
2021/01/20 11:30:42;;;;;;;2.58;1.60;;;10.80;88.10;;;;;;4985744;28;20041;-44
2021/01/20 11:33:09;;;;;;;2.28;1.52;;;10.80;87.90;;;;;;4984518;28;20022;-43
2021/01/20 11:35:35;;;;;;;3.15;2.00;;;10.80;87.80;;;;;;4985284;28;20018;-42
2021/01/20 11:38:01;;;;;;;3.42;1.77;;;10.80;87.80;;;;;;4985843;28;20474;-43
2021/01/20 11:40:28;;;;;;;2.28;1.77;;;10.90;88.10;;;;;;4985403;28;20508;-42
2021/01/20 11:42:57;;;;;;;4.13;1.80;;;10.90;87.40;;;;;;4985408;28;20058;-43
2021/01/20 11:45:31;;;;;;;2.03;1.40;;;10.90;87.00;;;;;;4985730;28;20053;-43
2021/01/20 11:47:57;;;;;;;2.90;1.80;;;11.00;87.40;;;;;;4971962;28;20025;-43
2021/01/20 11:50:23;;;;;;;2.65;2.00;;;11.00;87.20;;;;;;4985647;28;20030;-43
2021/01/20 11:52:51;;;;;;;2.40;1.75;;;11.10;86.40;;;;;;4985956;28;20061;-42
2021/01/20 11:55:17;;;;;;;1.73;1.55;;;11.10;86.30;;;;;;4984829;28;20128;-40
2021/01/20 11:57:44;;;;;;;2.22;1.60;;;11.10;86.10;;;;;;4984975;28;20022;-43
2021/01/20 12:00:10;;;;;;;2.00;1.60;;;11.10;86.00;;;;;;4984288;28;20273;-42
2021/01/20 12:02:37;;;;;;;2.00;1.58;;;11.10;86.30;;;;;;4985384;28;20034;-42
2021/01/20 12:05:05;;;;;;;4.60;1.60;;;11.10;85.20;;;;;;4985635;28;20387;-42
2021/01/20 12:07:31;;;;;;;2.30;1.70;;;11.10;85.10;;;;;;4986541;28;20022;-42
2021/01/20 12:09:57;;;;;;;2.72;1.50;;;11.10;85.10;;;;;;4985426;28;20033;-42
2021/01/20 12:12:22;;;;;;;2.20;1.48;;;11.10;84.90;;;;;;4985818;28;20473;-42
2021/01/20 12:14:48;;;;;;;1.65;1.50;;;11.10;83.90;;;;;;4984994;28;20133;-42
2021/01/20 12:17:13;;;;;;;3.00;1.90;;;11.10;84.10;;;;;;4983478;28;20027;-42
2021/01/20 12:19:39;;;;;;;3.80;2.00;;;11.10;83.30;;;;;;4984026;28;20041;-42
2021/01/20 12:22:04;;;;;;;2.05;1.55;;;11.10;83.60;;;;;;4984628;28;20119;-42
2021/01/20 12:24:31;;;;;;;1.60;1.50;;;11.10;83.70;;;;;;4983723;28;20053;-42
2021/01/20 12:26:57;;;;;;;2.00;1.52;;;11.10;83.60;;;;;;4984688;28;20432;-42
2021/01/20 12:29:22;;;;;;;2.00;1.50;;;11.10;83.30;;;;;;4984302;28;20037;-42
2021/01/20 12:31:51;;;;;;;1.73;1.60;;;11.10;83.90;;;;;;4985190;28;20150;-42
2021/01/20 12:34:17;;;;;;;2.30;1.88;;;11.00;83.70;;;;;;4984458;28;20366;-42
2021/01/20 12:36:46;;;;;;;2.33;1.63;;;11.00;83.60;;;;;;4983943;28;20132;-42
2021/01/20 12:39:12;;;;;;;2.78;1.55;;;11.00;83.10;;;;;;4984536;28;20354;-42
2021/01/20 12:41:38;;;;;;;2.42;1.52;;;10.90;83.40;;;;;;4982283;28;20036;-42
2021/01/20 12:44:04;;;;;;;4.28;2.00;;;10.80;83.50;;;;;;4983318;28;20072;-42
2021/01/20 12:46:30;;;;;;;2.25;1.70;;;10.80;83.30;;;;;;4985030;28;20037;-42
2021/01/20 12:48:55;;;;;;;2.33;1.70;;;10.80;82.70;;;;;;4984958;28;20426;-42
2021/01/20 12:51:21;;;;;;;2.25;1.88;;;10.70;82.90;;;;;;4984786;28;20371;-42
2021/01/20 12:53:46;;;;;;;3.75;1.70;;;10.70;82.80;;;;;;4985018;28;20113;-42
2021/01/20 12:56:12;;;;;;;3.90;2.30;;;10.70;82.70;;;;;;4984255;28;20089;-44
2021/01/20 12:58:37;;;;;;;4.35;2.90;;;10.70;82.90;;;;;;4984755;28;20037;-42